sensor_id;sensor_type;location;lat;lon;timestamp;pressure;altitude;pressure_sealevel;temperature;humidity
72798;BME280;61084;55.816;37.036;2023-09-18T00:00:43;100044.19;;;10.46;68.64
72798;BME280;61084;55.816;37.036;2023-09-18T00:03:09;100048.53;;;10.47;68.06
72798;BME280;61084;55.816;37.036;2023-09-18T00:05:35;100046.63;;;10.51;68.06
72798;BME280;61084;55.816;37.036;2023-09-18T00:08:01;100042.16;;;10.53;68.07
72798;BME280;61084;55.816;37.036;2023-09-18T00:10:30;100046.56;;;10.52;68.24
72798;BME280;61084;55.816;37.036;2023-09-18T00:12:57;100032.50;;;10.53;68.26
72798;BME280;61084;55.816;37.036;2023-09-18T00:15:23;100038.63;;;10.54;68.14
72798;BME280;61084;55.816;37.036;2023-09-18T00:17:49;100043.00;;;10.53;67.96
72798;BME280;61084;55.816;37.036;2023-09-18T00:20:15;100044.75;;;10.54;68.12
72798;BME280;61084;55.816;37.036;2023-09-18T00:22:43;100035.84;;;10.57;67.90
72798;BME280;61084;55.816;37.036;2023-09-18T00:25:09;100029.56;;;10.61;68.01
72798;BME280;61084;55.816;37.036;2023-09-18T00:27:35;100036.44;;;10.63;68.11
72798;BME280;61084;55.816;37.036;2023-09-18T00:30:03;100021.50;;;10.66;67.95
72798;BME280;61084;55.816;37.036;2023-09-18T00:32:31;100025.75;;;10.68;68.03
72798;BME280;61084;55.816;37.036;2023-09-18T00:34:57;100037.84;;;10.72;68.34
72798;BME280;61084;55.816;37.036;2023-09-18T00:37:23;100031.59;;;10.75;68.73
72798;BME280;61084;55.816;37.036;2023-09-18T00:39:52;100031.47;;;10.78;68.43
72798;BME280;61084;55.816;37.036;2023-09-18T00:42:17;100021.66;;;10.81;68.70
72798;BME280;61084;55.816;37.036;2023-09-18T00:44:44;100034.56;;;10.87;68.56
72798;BME280;61084;55.816;37.036;2023-09-18T00:47:12;100026.59;;;10.89;68.71
72798;BME280;61084;55.816;37.036;2023-09-18T00:49:41;100023.97;;;10.89;68.75
72798;BME280;61084;55.816;37.036;2023-09-18T00:52:09;100030.88;;;10.91;67.97
72798;BME280;61084;55.816;37.036;2023-09-18T00:54:37;100027.31;;;10.92;68.80
72798;BME280;61084;55.816;37.036;2023-09-18T00:57:04;100027.25;;;10.94;68.55
72798;BME280;61084;55.816;37.036;2023-09-18T00:59:31;100028.03;;;10.96;68.21
72798;BME280;61084;55.816;37.036;2023-09-18T01:01:57;100027.97;;;10.97;68.81
72798;BME280;61084;55.816;37.036;2023-09-18T01:04:24;100019.09;;;11.00;68.63
72798;BME280;61084;55.816;37.036;2023-09-18T01:06:52;100011.84;;;11.05;68.81
72798;BME280;61084;55.816;37.036;2023-09-18T01:09:18;100012.56;;;11.08;68.51
72798;BME280;61084;55.816;37.036;2023-09-18T01:14:39;100015.19;;;11.08;68.68
72798;BME280;61084;55.816;37.036;2023-09-18T01:17:09;100009.16;;;11.06;68.88
72798;BME280;61084;55.816;37.036;2023-09-18T01:19:46;100011.00;;;11.04;68.82
72798;BME280;61084;55.816;37.036;2023-09-18T01:22:17;100015.28;;;11.07;68.96
72798;BME280;61084;55.816;37.036;2023-09-18T01:24:45;100002.06;;;11.08;68.07
72798;BME280;61084;55.816;37.036;2023-09-18T01:27:12;100001.91;;;11.11;68.72
72798;BME280;61084;55.816;37.036;2023-09-18T01:29:40;100000.00;;;11.15;68.69
72798;BME280;61084;55.816;37.036;2023-09-18T01:32:06;100006.13;;;11.15;68.58
72798;BME280;61084;55.816;37.036;2023-09-18T01:34:34;99999.94;;;11.16;68.72
72798;BME280;61084;55.816;37.036;2023-09-18T01:37:03;99999.94;;;11.16;68.87
72798;BME280;61084;55.816;37.036;2023-09-18T01:39:31;99995.63;;;11.15;68.56
72798;BME280;61084;55.816;37.036;2023-09-18T01:41:59;99993.81;;;11.16;68.79
72798;BME280;61084;55.816;37.036;2023-09-18T01:44:28;99988.44;;;11.19;69.13
72798;BME280;61084;55.816;37.036;2023-09-18T01:46:56;99999.72;;;11.21;69.06
72798;BME280;61084;55.816;37.036;2023-09-18T01:49:31;99988.34;;;11.20;69.07
72798;BME280;61084;55.816;37.036;2023-09-18T01:51:57;99988.16;;;11.25;69.29
72798;BME280;61084;55.816;37.036;2023-09-18T01:54:23;99988.03;;;11.28;69.05
72798;BME280;61084;55.816;37.036;2023-09-18T01:56:49;99985.22;;;11.31;69.13
72798;BME280;61084;55.816;37.036;2023-09-18T01:59:15;99982.56;;;11.32;68.91
72798;BME280;61084;55.816;37.036;2023-09-18T02:01:41;99973.66;;;11.35;69.00
72798;BME280;61084;55.816;37.036;2023-09-18T02:04:07;99978.00;;;11.36;68.83
72798;BME280;61084;55.816;37.036;2023-09-18T02:06:33;99984.09;;;11.36;68.88
72798;BME280;61084;55.816;37.036;2023-09-18T02:08:58;99977.09;;;11.37;68.75
72798;BME280;61084;55.816;37.036;2023-09-18T02:11:24;99969.03;;;11.40;69.57
72798;BME280;61084;55.816;37.036;2023-09-18T02:13:50;99970.03;;;11.37;68.89
72798;BME280;61084;55.816;37.036;2023-09-18T02:16:17;99969.03;;;11.40;69.43
72798;BME280;61084;55.816;37.036;2023-09-18T02:18:43;99970.59;;;11.44;69.21
72798;BME280;61084;55.816;37.036;2023-09-18T02:21:09;99960.03;;;11.46;69.02
72798;BME280;61084;55.816;37.036;2023-09-18T02:23:35;99969.53;;;11.48;69.14
72798;BME280;61084;55.816;37.036;2023-09-18T02:26:01;99965.88;;;11.51;68.88
72798;BME280;61084;55.816;37.036;2023-09-18T02:28:27;99961.50;;;11.51;68.51
72798;BME280;61084;55.816;37.036;2023-09-18T02:30:53;99964.03;;;11.53;68.92
72798;BME280;61084;55.816;37.036;2023-09-18T02:33:19;99962.22;;;11.55;69.10
72798;BME280;61084;55.816;37.036;2023-09-18T02:35:45;99971.78;;;11.56;68.99
72798;BME280;61084;55.816;37.036;2023-09-18T02:38:10;99954.16;;;11.58;69.18
72798;BME280;61084;55.816;37.036;2023-09-18T02:40:36;99961.97;;;11.59;69.14
72798;BME280;61084;55.816;37.036;2023-09-18T02:43:02;99969.81;;;11.61;68.92
72798;BME280;61084;55.816;37.036;2023-09-18T02:45:28;99972.25;;;11.64;69.61
72798;BME280;61084;55.816;37.036;2023-09-18T02:47:54;99973.81;;;11.69;69.40
72798;BME280;61084;55.816;37.036;2023-09-18T02:50:20;99965.69;;;11.74;69.60
72798;BME280;61084;55.816;37.036;2023-09-18T02:52:46;99964.69;;;11.76;69.48
72798;BME280;61084;55.816;37.036;2023-09-18T02:55:11;99970.72;;;11.78;68.90
72798;BME280;61084;55.816;37.036;2023-09-18T02:57:39;99974.19;;;11.79;69.34
72798;BME280;61084;55.816;37.036;2023-09-18T03:00:05;99965.25;;;11.83;69.06
72798;BME280;61084;55.816;37.036;2023-09-18T03:02:31;99972.06;;;11.87;69.51
72798;BME280;61084;55.816;37.036;2023-09-18T03:04:57;99976.31;;;11.89;69.64
72798;BME280;61084;55.816;37.036;2023-09-18T03:07:23;99972.59;;;11.93;69.49
72798;BME280;61084;55.816;37.036;2023-09-18T03:09:49;99971.84;;;11.91;69.69
72798;BME280;61084;55.816;37.036;2023-09-18T03:12:15;99966.41;;;11.94;69.35
72798;BME280;61084;55.816;37.036;2023-09-18T03:14:42;99964.50;;;11.98;69.53
72798;BME280;61084;55.816;37.036;2023-09-18T03:17:08;99968.66;;;12.02;69.51
72798;BME280;61084;55.816;37.036;2023-09-18T03:19:34;99968.59;;;12.03;69.60
72798;BME280;61084;55.816;37.036;2023-09-18T03:22:01;99964.28;;;12.02;69.47
72798;BME280;61084;55.816;37.036;2023-09-18T03:24:27;99963.31;;;12.03;70.24
72798;BME280;61084;55.816;37.036;2023-09-18T03:26:53;99964.94;;;12.06;69.29
72798;BME280;61084;55.816;37.036;2023-09-18T03:29:19;99963.00;;;12.09;69.27
72798;BME280;61084;55.816;37.036;2023-09-18T03:31:45;99966.41;;;12.11;69.20
72798;BME280;61084;55.816;37.036;2023-09-18T03:34:11;99962.09;;;12.10;69.62
72798;BME280;61084;55.816;37.036;2023-09-18T03:36:37;99962.78;;;12.14;69.25
72798;BME280;61084;55.816;37.036;2023-09-18T03:39:05;99959.25;;;12.15;69.22
72798;BME280;61084;55.816;37.036;2023-09-18T03:41:31;99960.78;;;12.19;69.68
72798;BME280;61084;55.816;37.036;2023-09-18T03:44:00;99953.75;;;12.20;69.27
72798;BME280;61084;55.816;37.036;2023-09-18T03:46:26;99959.69;;;12.23;69.45
72798;BME280;61084;55.816;37.036;2023-09-18T03:48:53;99956.06;;;12.26;69.52
72798;BME280;61084;55.816;37.036;2023-09-18T03:51:19;99959.47;;;12.28;69.44
72798;BME280;61084;55.816;37.036;2023-09-18T03:53:46;99959.31;;;12.31;69.58
72798;BME280;61084;55.816;37.036;2023-09-18T03:56:13;99947.84;;;12.32;69.50
72798;BME280;61084;55.816;37.036;2023-09-18T03:58:40;99953.72;;;12.37;69.24
72798;BME280;61084;55.816;37.036;2023-09-18T04:01:07;99956.19;;;12.40;69.39
72798;BME280;61084;55.816;37.036;2023-09-18T04:03:33;99947.38;;;12.41;69.18
72798;BME280;61084;55.816;37.036;2023-09-18T04:05:59;99955.28;;;12.41;68.97
72798;BME280;61084;55.816;37.036;2023-09-18T04:08:25;99948.91;;;12.45;69.25
72798;BME280;61084;55.816;37.036;2023-09-18T04:10:51;99949.63;;;12.48;69.31
72798;BME280;61084;55.816;37.036;2023-09-18T04:13:21;99952.00;;;12.53;69.33
72798;BME280;61084;55.816;37.036;2023-09-18T04:15:47;99948.53;;;12.52;69.33
72798;BME280;61084;55.816;37.036;2023-09-18T04:18:14;99949.22;;;12.56;69.65
72798;BME280;61084;55.816;37.036;2023-09-18T04:20:39;99941.31;;;12.56;69.09
72798;BME280;61084;55.816;37.036;2023-09-18T04:23:23;99949.88;;;12.59;69.63
72798;BME280;61084;55.816;37.036;2023-09-18T04:25:52;99939.19;;;12.62;69.63
72798;BME280;61084;55.816;37.036;2023-09-18T04:28:19;99943.28;;;12.68;69.25
72798;BME280;61084;55.816;37.036;2023-09-18T04:30:46;99944.00;;;12.71;68.96
72798;BME280;61084;55.816;37.036;2023-09-18T04:33:16;99949.09;;;12.74;69.52
72798;BME280;61084;55.816;37.036;2023-09-18T04:35:43;99950.66;;;12.78;69.21
72798;BME280;61084;55.816;37.036;2023-09-18T04:38:10;99950.41;;;12.83;69.16
72798;BME280;61084;55.816;37.036;2023-09-18T04:40:37;99950.22;;;12.86;69.54
72798;BME280;61084;55.816;37.036;2023-09-18T04:43:03;99954.47;;;12.88;69.14
72798;BME280;61084;55.816;37.036;2023-09-18T04:45:32;99956.19;;;12.90;69.43
72798;BME280;61084;55.816;37.036;2023-09-18T04:47:58;99966.22;;;12.99;69.31
72798;BME280;61084;55.816;37.036;2023-09-18T04:50:24;99964.19;;;13.04;69.11
72798;BME280;61084;55.816;37.036;2023-09-18T04:52:52;99963.13;;;13.08;69.28
72798;BME280;61084;55.816;37.036;2023-09-18T04:55:20;99961.09;;;13.13;69.28
72798;BME280;61084;55.816;37.036;2023-09-18T04:57:47;99956.50;;;13.16;68.89
72798;BME280;61084;55.816;37.036;2023-09-18T05:00:13;99959.59;;;13.24;68.73
72798;BME280;61084;55.816;37.036;2023-09-18T05:02:40;99965.19;;;13.34;69.04
72798;BME280;61084;55.816;37.036;2023-09-18T05:05:06;99970.06;;;13.41;68.80
72798;BME280;61084;55.816;37.036;2023-09-18T05:07:35;99966.91;;;13.50;68.66
72798;BME280;61084;55.816;37.036;2023-09-18T05:10:01;99966.31;;;13.61;68.43
72798;BME280;61084;55.816;37.036;2023-09-18T05:12:27;99971.13;;;13.69;68.71
72798;BME280;61084;55.816;37.036;2023-09-18T05:14:53;99964.50;;;13.77;68.54
72798;BME280;61084;55.816;37.036;2023-09-18T05:17:19;99965.84;;;13.84;68.51
72798;BME280;61084;55.816;37.036;2023-09-18T05:19:45;99972.28;;;13.94;68.44
72798;BME280;61084;55.816;37.036;2023-09-18T05:22:11;99971.97;;;14.00;67.99
72798;BME280;61084;55.816;37.036;2023-09-18T05:24:40;99967.19;;;14.07;68.24
72798;BME280;61084;55.816;37.036;2023-09-18T05:27:06;99963.22;;;14.14;68.02
72798;BME280;61084;55.816;37.036;2023-09-18T05:29:33;99970.72;;;14.21;67.99
72798;BME280;61084;55.816;37.036;2023-09-18T05:32:00;99966.53;;;14.33;67.66
72798;BME280;61084;55.816;37.036;2023-09-18T05:34:26;99966.72;;;14.44;67.76
72798;BME280;61084;55.816;37.036;2023-09-18T05:36:52;99966.09;;;14.55;67.53
72798;BME280;61084;55.816;37.036;2023-09-18T05:39:18;99966.09;;;14.55;67.23
72798;BME280;61084;55.816;37.036;2023-09-18T05:41:44;99964.50;;;14.52;67.63
72798;BME280;61084;55.816;37.036;2023-09-18T05:44:09;99954.59;;;14.56;67.48
72798;BME280;61084;55.816;37.036;2023-09-18T05:46:36;99956.19;;;14.58;67.63
72798;BME280;61084;55.816;37.036;2023-09-18T05:49:02;99956.84;;;14.62;67.34
72798;BME280;61084;55.816;37.036;2023-09-18T05:51:30;99954.03;;;14.65;67.60
72798;BME280;61084;55.816;37.036;2023-09-18T05:53:56;99960.72;;;14.70;67.56
72798;BME280;61084;55.816;37.036;2023-09-18T05:56:21;99958.94;;;14.71;67.70
72798;BME280;61084;55.816;37.036;2023-09-18T05:58:49;99962.16;;;14.76;67.26
72798;BME280;61084;55.816;37.036;2023-09-18T06:01:15;99966.31;;;14.80;67.12
72798;BME280;61084;55.816;37.036;2023-09-18T06:03:41;99960.09;;;14.81;67.00
72798;BME280;61084;55.816;37.036;2023-09-18T06:06:07;99968.69;;;14.84;67.28
72798;BME280;61084;55.816;37.036;2023-09-18T06:08:36;99962.34;;;14.87;67.46
72798;BME280;61084;55.816;37.036;2023-09-18T06:11:01;99967.75;;;14.85;67.23
72798;BME280;61084;55.816;37.036;2023-09-18T06:13:27;99973.84;;;14.86;67.02
72798;BME280;61084;55.816;37.036;2023-09-18T06:15:53;99967.53;;;14.88;66.93
72798;BME280;61084;55.816;37.036;2023-09-18T06:18:22;99965.66;;;14.90;67.10
72798;BME280;61084;55.816;37.036;2023-09-18T06:20:48;99975.19;;;14.93;66.88
72798;BME280;61084;55.816;37.036;2023-09-18T06:23:14;99982.84;;;14.97;66.91
72798;BME280;61084;55.816;37.036;2023-09-18T06:25:40;99984.34;;;15.01;67.10
72798;BME280;61084;55.816;37.036;2023-09-18T06:28:06;99985.00;;;15.05;67.06
72798;BME280;61084;55.816;37.036;2023-09-18T06:30:32;99983.31;;;15.04;66.58
72798;BME280;61084;55.816;37.036;2023-09-18T06:33:00;99980.56;;;15.05;66.79
72798;BME280;61084;55.816;37.036;2023-09-18T06:35:26;99982.19;;;15.08;66.33
72798;BME280;61084;55.816;37.036;2023-09-18T06:37:52;99985.47;;;15.11;66.39
72798;BME280;61084;55.816;37.036;2023-09-18T06:40:20;99984.53;;;15.13;66.73
72798;BME280;61084;55.816;37.036;2023-09-18T06:42:46;99982.94;;;15.10;66.49
72798;BME280;61084;55.816;37.036;2023-09-18T06:45:12;99991.44;;;15.15;66.38
72798;BME280;61084;55.816;37.036;2023-09-18T06:47:39;99987.00;;;15.16;66.07
72798;BME280;61084;55.816;37.036;2023-09-18T06:50:06;99990.41;;;15.18;66.82
72798;BME280;61084;55.816;37.036;2023-09-18T06:52:31;99985.09;;;15.18;66.41
72798;BME280;61084;55.816;37.036;2023-09-18T06:54:57;99990.75;;;15.26;66.25
72798;BME280;61084;55.816;37.036;2023-09-18T06:57:24;99999.28;;;15.31;66.52
72798;BME280;61084;55.816;37.036;2023-09-18T06:59:50;99994.63;;;15.34;66.22
72798;BME280;61084;55.816;37.036;2023-09-18T07:02:17;100005.09;;;15.36;66.04
72798;BME280;61084;55.816;37.036;2023-09-18T07:04:43;100001.34;;;15.40;66.68
72798;BME280;61084;55.816;37.036;2023-09-18T07:07:12;100001.84;;;15.46;66.07
72798;BME280;61084;55.816;37.036;2023-09-18T07:09:38;100011.16;;;15.52;66.63
72798;BME280;61084;55.816;37.036;2023-09-18T07:12:06;100014.38;;;15.57;66.03
72798;BME280;61084;55.816;37.036;2023-09-18T07:14:31;100014.09;;;15.61;66.13
72798;BME280;61084;55.816;37.036;2023-09-18T07:16:57;100013.25;;;15.61;66.00
72798;BME280;61084;55.816;37.036;2023-09-18T07:19:23;100013.41;;;15.58;65.87
72798;BME280;61084;55.816;37.036;2023-09-18T07:21:49;100014.09;;;15.61;65.72
72798;BME280;61084;55.816;37.036;2023-09-18T07:24:15;100025.22;;;15.66;65.61
72798;BME280;61084;55.816;37.036;2023-09-18T07:26:48;100024.06;;;15.70;65.90
72798;BME280;61084;55.816;37.036;2023-09-18T07:29:15;100027.28;;;15.75;65.83
72798;BME280;61084;55.816;37.036;2023-09-18T07:31:44;100032.28;;;15.80;65.71
72798;BME280;61084;55.816;37.036;2023-09-18T07:34:10;100033.78;;;15.84;65.74
72798;BME280;61084;55.816;37.036;2023-09-18T07:36:37;100035.28;;;15.88;65.65
72798;BME280;61084;55.816;37.036;2023-09-18T07:39:03;100034.13;;;15.92;65.48
72798;BME280;61084;55.816;37.036;2023-09-18T07:41:31;100044.72;;;15.92;65.36
72798;BME280;61084;55.816;37.036;2023-09-18T07:43:58;100044.44;;;15.97;65.83
72798;BME280;61084;55.816;37.036;2023-09-18T07:46:25;100038.31;;;15.96;65.43
72798;BME280;61084;55.816;37.036;2023-09-18T07:48:50;100043.78;;;15.93;65.15
72798;BME280;61084;55.816;37.036;2023-09-18T07:51:16;100045.78;;;15.90;65.47
72798;BME280;61084;55.816;37.036;2023-09-18T07:53:42;100043.91;;;15.92;65.24
72798;BME280;61084;55.816;37.036;2023-09-18T07:56:08;100041.03;;;15.95;65.75
72798;BME280;61084;55.816;37.036;2023-09-18T07:58:34;100041.88;;;15.95;65.36
72798;BME280;61084;55.816;37.036;2023-09-18T08:01:04;100033.94;;;15.95;65.36
72798;BME280;61084;55.816;37.036;2023-09-18T08:03:36;100033.84;;;15.97;65.20
72798;BME280;61084;55.816;37.036;2023-09-18T08:06:01;100037.03;;;16.02;65.17
72798;BME280;61084;55.816;37.036;2023-09-18T08:08:30;100031.75;;;16.02;65.36
72798;BME280;61084;55.816;37.036;2023-09-18T08:10:58;100030.72;;;16.04;65.18
72798;BME280;61084;55.816;37.036;2023-09-18T08:13:24;100023.22;;;16.11;65.23
72798;BME280;61084;55.816;37.036;2023-09-18T08:15:50;100024.59;;;16.16;65.34
72798;BME280;61084;55.816;37.036;2023-09-18T08:18:16;100027.91;;;16.20;65.05
72798;BME280;61084;55.816;37.036;2023-09-18T08:20:43;100028.66;;;16.22;65.13
72798;BME280;61084;55.816;37.036;2023-09-18T08:23:10;100028.44;;;16.25;65.14
72798;BME280;61084;55.816;37.036;2023-09-18T08:25:36;100028.34;;;16.26;65.10
72798;BME280;61084;55.816;37.036;2023-09-18T08:28:03;100032.38;;;16.32;65.17
72798;BME280;61084;55.816;37.036;2023-09-18T08:30:30;100036.81;;;16.31;64.94
72798;BME280;61084;55.816;37.036;2023-09-18T08:32:56;100039.59;;;16.30;64.98
72798;BME280;61084;55.816;37.036;2023-09-18T08:35:22;100047.41;;;16.31;64.99
72798;BME280;61084;55.816;37.036;2023-09-18T08:37:48;100046.28;;;16.35;65.11
72798;BME280;61084;55.816;37.036;2023-09-18T08:40:14;100039.19;;;16.36;64.93
72798;BME280;61084;55.816;37.036;2023-09-18T08:42:45;100048.94;;;16.35;64.96
72798;BME280;61084;55.816;37.036;2023-09-18T08:45:19;100052.41;;;16.36;64.98
72798;BME280;61084;55.816;37.036;2023-09-18T08:47:47;100052.41;;;16.36;64.96
72798;BME280;61084;55.816;37.036;2023-09-18T08:50:13;100061.34;;;16.35;64.85
72798;BME280;61084;55.816;37.036;2023-09-18T08:52:41;100068.91;;;16.27;65.13
72798;BME280;61084;55.816;37.036;2023-09-18T08:55:11;100055.03;;;16.23;65.48
72798;BME280;61084;55.816;37.036;2023-09-18T08:57:39;100046.44;;;16.20;65.48
72798;BME280;61084;55.816;37.036;2023-09-18T09:00:11;100044.44;;;16.23;65.55
72798;BME280;61084;55.816;37.036;2023-09-18T09:02:46;100037.06;;;16.28;65.29
72798;BME280;61084;55.816;37.036;2023-09-18T09:05:14;100039.59;;;16.30;65.62
72798;BME280;61084;55.816;37.036;2023-09-18T09:07:40;100048.16;;;16.33;65.57
72798;BME280;61084;55.816;37.036;2023-09-18T09:10:06;100047.22;;;16.34;65.54
72798;BME280;61084;55.816;37.036;2023-09-18T09:12:50;100056.69;;;16.38;66.05
72798;BME280;61084;55.816;37.036;2023-09-18T09:15:17;100055.94;;;16.36;65.68
72798;BME280;61084;55.816;37.036;2023-09-18T09:17:43;100054.25;;;16.35;66.05
72798;BME280;61084;55.816;37.036;2023-09-18T09:20:13;100056.91;;;16.35;65.72
72798;BME280;61084;55.816;37.036;2023-09-18T09:22:41;100057.72;;;16.36;65.97
72798;BME280;61084;55.816;37.036;2023-09-18T09:25:28;100060.59;;;16.33;65.91
72798;BME280;61084;55.816;37.036;2023-09-18T09:28:05;100063.53;;;16.28;66.07
72798;BME280;61084;55.816;37.036;2023-09-18T09:30:35;100069.59;;;16.30;66.28
72798;BME280;61084;55.816;37.036;2023-09-18T09:33:04;100063.44;;;16.30;66.87
72798;BME280;61084;55.816;37.036;2023-09-18T09:35:32;100059.53;;;16.35;66.73
72798;BME280;61084;55.816;37.036;2023-09-18T09:38:10;100056.25;;;16.44;66.76
72798;BME280;61084;55.816;37.036;2023-09-18T09:40:40;100053.03;;;16.53;66.75
72798;BME280;61084;55.816;37.036;2023-09-18T09:43:08;100050.53;;;16.65;66.95
72798;BME280;61084;55.816;37.036;2023-09-18T09:45:35;100045.75;;;16.70;66.25
72798;BME280;61084;55.816;37.036;2023-09-18T09:48:03;100045.53;;;16.73;66.19
72798;BME280;61084;55.816;37.036;2023-09-18T09:50:33;100040.16;;;16.74;65.84
72798;BME280;61084;55.816;37.036;2023-09-18T09:52:59;100033.25;;;16.72;66.08
72798;BME280;61084;55.816;37.036;2023-09-18T09:55:30;100041.63;;;16.78;66.19
72798;BME280;61084;55.816;37.036;2023-09-18T09:58:02;100039.31;;;16.86;66.03
72798;BME280;61084;55.816;37.036;2023-09-18T10:00:43;100040.72;;;16.92;66.17
72798;BME280;61084;55.816;37.036;2023-09-18T10:03:13;100033.25;;;16.97;66.10
72798;BME280;61084;55.816;37.036;2023-09-18T10:05:45;100034.66;;;17.02;65.96
72798;BME280;61084;55.816;37.036;2023-09-18T10:08:23;100029.78;;;17.09;65.44
72798;BME280;61084;55.816;37.036;2023-09-18T10:10:55;100036.56;;;17.13;65.34
72798;BME280;61084;55.816;37.036;2023-09-18T10:13:33;100039.41;;;17.22;65.53
72798;BME280;61084;55.816;37.036;2023-09-18T10:16:04;100044.00;;;17.33;65.18
72798;BME280;61084;55.816;37.036;2023-09-18T10:18:42;100041.94;;;17.37;64.79
72798;BME280;61084;55.816;37.036;2023-09-18T10:24:23;100031.13;;;17.40;64.38
72798;BME280;61084;55.816;37.036;2023-09-18T10:26:57;100035.25;;;17.44;64.69
72798;BME280;61084;55.816;37.036;2023-09-18T10:29:28;100040.78;;;17.53;64.89
72798;BME280;61084;55.816;37.036;2023-09-18T10:31:58;100042.78;;;17.62;65.23
72798;BME280;61084;55.816;37.036;2023-09-18T10:34:25;100038.28;;;17.75;64.68
72798;BME280;61084;55.816;37.036;2023-09-18T10:36:53;100050.69;;;17.87;64.71
72798;BME280;61084;55.816;37.036;2023-09-18T10:39:20;100051.09;;;17.94;64.25
72798;BME280;61084;55.816;37.036;2023-09-18T10:41:52;100037.97;;;18.03;64.46
72798;BME280;61084;55.816;37.036;2023-09-18T10:44:19;100043.09;;;18.06;63.68
72798;BME280;61084;55.816;37.036;2023-09-18T10:46:49;100044.66;;;18.09;63.38
72798;BME280;61084;55.816;37.036;2023-09-18T10:49:18;100045.75;;;18.06;63.46
72798;BME280;61084;55.816;37.036;2023-09-18T10:51:54;100037.25;;;18.01;63.18
72798;BME280;61084;55.816;37.036;2023-09-18T10:54:23;100047.53;;;18.06;63.53
72798;BME280;61084;55.816;37.036;2023-09-18T10:56:50;100041.50;;;18.04;63.27
72798;BME280;61084;55.816;37.036;2023-09-18T10:59:17;100042.81;;;17.98;63.28
72798;BME280;61084;55.816;37.036;2023-09-18T11:01:44;100035.78;;;17.97;63.64
72798;BME280;61084;55.816;37.036;2023-09-18T11:04:10;100047.25;;;17.98;63.45
72798;BME280;61084;55.816;37.036;2023-09-18T11:09:27;100048.31;;;17.95;63.67
72798;BME280;61084;55.816;37.036;2023-09-18T11:14:48;100043.22;;;17.92;63.41
72798;BME280;61084;55.816;37.036;2023-09-18T11:20:16;100044.81;;;17.95;63.42
72798;BME280;61084;55.816;37.036;2023-09-18T11:22:49;100043.09;;;18.06;63.45
72798;BME280;61084;55.816;37.036;2023-09-18T11:28:15;100045.81;;;18.18;62.99
72798;BME280;61084;55.816;37.036;2023-09-18T11:30:49;100035.50;;;18.13;63.01
72798;BME280;61084;55.816;37.036;2023-09-18T11:33:39;100038.56;;;18.20;63.46
72798;BME280;61084;55.816;37.036;2023-09-18T11:36:11;100033.41;;;18.29;63.09
72798;BME280;61084;55.816;37.036;2023-09-18T11:38:57;100032.63;;;18.40;62.80
72798;BME280;61084;55.816;37.036;2023-09-18T11:41:28;100032.28;;;18.44;62.78
72798;BME280;61084;55.816;37.036;2023-09-18T11:46:58;100039.50;;;18.42;62.54
72798;BME280;61084;55.816;37.036;2023-09-18T11:49:28;100042.56;;;18.49;62.64
72798;BME280;61084;55.816;37.036;2023-09-18T11:52:01;100044.63;;;18.45;62.67
72798;BME280;61084;55.816;37.036;2023-09-18T11:54:28;100056.59;;;18.51;62.62
72798;BME280;61084;55.816;37.036;2023-09-18T11:56:54;100048.13;;;18.46;62.47
72798;BME280;61084;55.816;37.036;2023-09-18T11:59:40;100049.00;;;18.46;62.41
72798;BME280;61084;55.816;37.036;2023-09-18T12:02:27;100048.13;;;18.46;62.44
72798;BME280;61084;55.816;37.036;2023-09-18T12:04:54;100047.66;;;18.52;62.68
72798;BME280;61084;55.816;37.036;2023-09-18T12:07:21;100048.41;;;18.54;62.49
72798;BME280;61084;55.816;37.036;2023-09-18T12:09:47;100053.84;;;18.52;62.64
72798;BME280;61084;55.816;37.036;2023-09-18T12:12:14;100050.00;;;18.56;62.84
72798;BME280;61084;55.816;37.036;2023-09-18T12:14:41;100050.72;;;18.58;62.45
72798;BME280;61084;55.816;37.036;2023-09-18T12:17:08;100048.53;;;18.52;62.45
72798;BME280;61084;55.816;37.036;2023-09-18T12:19:34;100045.88;;;18.52;62.49
72798;BME280;61084;55.816;37.036;2023-09-18T12:22:01;100050.72;;;18.58;62.51
72798;BME280;61084;55.816;37.036;2023-09-18T12:24:27;100044.78;;;18.55;62.45
72798;BME280;61084;55.816;37.036;2023-09-18T12:26:54;100049.38;;;18.53;62.12
72798;BME280;61084;55.816;37.036;2023-09-18T12:29:23;100045.97;;;18.51;62.17
72798;BME280;61084;55.816;37.036;2023-09-18T12:31:49;100052.13;;;18.51;62.47
72798;BME280;61084;55.816;37.036;2023-09-18T12:34:17;100048.53;;;18.52;62.47
72798;BME280;61084;55.816;37.036;2023-09-18T12:36:44;100050.34;;;18.52;62.16
72798;BME280;61084;55.816;37.036;2023-09-18T12:39:14;100044.88;;;18.53;62.29
72798;BME280;61084;55.816;37.036;2023-09-18T12:41:45;100046.59;;;18.54;62.04
72798;BME280;61084;55.816;37.036;2023-09-18T12:44:11;100044.53;;;18.58;62.23
72798;BME280;61084;55.816;37.036;2023-09-18T12:46:38;100049.88;;;18.58;62.18
72798;BME280;61084;55.816;37.036;2023-09-18T12:49:16;100046.34;;;18.57;62.06
72798;BME280;61084;55.816;37.036;2023-09-18T12:51:42;100047.44;;;18.55;62.30
72798;BME280;61084;55.816;37.036;2023-09-18T12:54:10;100045.88;;;18.52;62.17
72798;BME280;61084;55.816;37.036;2023-09-18T12:56:40;100055.03;;;18.48;61.97
72798;BME280;61084;55.816;37.036;2023-09-18T12:59:10;100056.84;;;18.48;62.50
72798;BME280;61084;55.816;37.036;2023-09-18T13:01:36;100049.09;;;18.45;62.48
72798;BME280;61084;55.816;37.036;2023-09-18T13:04:04;100060.34;;;18.48;62.41
72798;BME280;61084;55.816;37.036;2023-09-18T13:06:31;100059.63;;;18.46;62.12
72798;BME280;61084;55.816;37.036;2023-09-18T13:09:17;100063.41;;;18.42;62.23